createdAt,value
2023-01-25T00:00:02.297Z,79.64
2023-01-25T00:02:32.121Z,79.69
2023-01-25T00:04:59.745Z,79.43
2023-01-25T00:07:27.012Z,79.44
2023-01-25T00:09:54.442Z,79.45
2023-01-25T00:12:22.087Z,79.61
2023-01-25T00:14:49.126Z,79.70
2023-01-25T00:17:16.424Z,79.71
2023-01-25T00:19:43.695Z,79.56
2023-01-25T00:22:11.146Z,79.41
2023-01-25T00:24:38.690Z,79.26
2023-01-25T00:27:05.618Z,79.29
2023-01-25T00:29:32.636Z,79.33
2023-01-25T00:32:29.406Z,79.46
2023-01-25T00:34:58.346Z,79.75
2023-01-25T00:37:28.765Z,79.89
2023-01-25T00:40:01.118Z,80.16
2023-01-25T00:42:28.054Z,80.34
2023-01-25T00:44:54.991Z,80.55
2023-01-25T00:47:23.778Z,80.47
2023-01-25T00:49:50.857Z,80.36
2023-01-25T00:52:18.544Z,80.51
2023-01-25T00:54:46.247Z,80.76
2023-01-25T00:57:13.916Z,80.94
2023-01-25T00:59:44.657Z,81.36
2023-01-25T01:02:12.725Z,81.52
2023-01-25T01:04:39.644Z,81.82
2023-01-25T01:07:12.306Z,82.33
2023-01-25T01:09:39.731Z,82.49
2023-01-25T01:12:06.706Z,82.62
2023-01-25T01:14:33.957Z,82.55
2023-01-25T01:17:01.782Z,82.49
2023-01-25T01:19:29.395Z,82.28
2023-01-25T01:21:56.575Z,82.15
2023-01-25T01:24:23.943Z,82.14
2023-01-25T01:26:50.940Z,81.88
2023-01-25T01:29:18.346Z,81.67
2023-01-25T01:31:45.807Z,81.70
2023-01-25T01:34:18.342Z,81.67
2023-01-25T01:36:45.799Z,81.71
2023-01-25T01:39:13.275Z,81.90
2023-01-25T01:41:40.318Z,82.14
2023-01-25T01:44:15.693Z,82.28
2023-01-25T01:46:42.907Z,82.28
2023-01-25T01:49:18.968Z,82.08
2023-01-25T01:51:53.490Z,81.79
2023-01-25T01:54:29.204Z,81.94
2023-01-25T01:57:06.970Z,82.23
2023-01-25T01:59:46.656Z,82.01
2023-01-25T02:02:14.758Z,82.16
2023-01-25T02:04:43.141Z,82.41
2023-01-25T02:07:32.730Z,82.45
2023-01-25T02:10:01.347Z,82.43
2023-01-25T02:12:29.530Z,82.57
2023-01-25T02:14:56.585Z,82.66
2023-01-25T02:17:27.879Z,82.59
2023-01-25T02:20:07.853Z,82.58
2023-01-25T02:22:45.131Z,82.57
2023-01-25T02:25:14.388Z,82.54
2023-01-25T02:27:43.445Z,82.51
2023-01-25T02:30:11.404Z,82.57
2023-01-25T02:32:39.720Z,82.62
2023-01-25T02:35:07.855Z,82.28
2023-01-25T02:37:35.746Z,81.91
2023-01-25T02:40:05.861Z,81.78
2023-01-25T02:42:35.659Z,81.96
2023-01-25T02:45:04.964Z,81.68
2023-01-25T02:47:32.398Z,81.68
2023-01-25T02:50:00.703Z,81.88
2023-01-25T02:52:28.251Z,81.77
2023-01-25T02:54:55.898Z,81.92
2023-01-25T02:57:23.257Z,81.75
2023-01-25T02:59:50.980Z,81.73
2023-01-25T03:02:19.013Z,81.76
2023-01-25T03:04:46.718Z,81.70
2023-01-25T03:07:13.897Z,81.31
2023-01-25T03:09:41.592Z,81.51
2023-01-25T03:12:08.799Z,81.59
2023-01-25T03:14:38.529Z,81.36
2023-01-25T03:17:59.518Z,81.33
2023-01-25T03:20:27.707Z,81.69
2023-01-25T03:22:55.520Z,81.83
2023-01-25T03:25:22.573Z,82.00
2023-01-25T03:28:04.380Z,81.94
2023-01-25T03:30:31.441Z,81.96
2023-01-25T03:32:58.839Z,81.84
2023-01-25T03:35:26.159Z,81.72
2023-01-25T03:37:54.410Z,81.64
2023-01-25T03:40:21.925Z,81.73
2023-01-25T03:42:50.949Z,82.00
2023-01-25T03:45:18.251Z,82.14
2023-01-25T03:47:45.386Z,81.92
2023-01-25T03:50:12.389Z,81.99
2023-01-25T03:52:42.206Z,82.14
2023-01-25T03:55:09.993Z,82.23
2023-01-25T03:57:42.347Z,82.34
2023-01-25T04:00:12.908Z,82.29
2023-01-25T04:02:45.177Z,82.48
2023-01-25T04:05:16.130Z,82.64
2023-01-25T04:07:43.120Z,82.42
2023-01-25T04:10:11.045Z,82.53
2023-01-25T04:12:40.468Z,82.66
2023-01-25T04:15:08.536Z,82.88
2023-01-25T04:17:36.015Z,83.04
2023-01-25T04:20:13.625Z,83.26
2023-01-25T04:22:40.943Z,83.29
2023-01-25T04:25:09.433Z,83.31
2023-01-25T04:27:39.237Z,83.16
2023-01-25T04:30:10.044Z,83.09
2023-01-25T04:32:38.337Z,82.98
2023-01-25T04:35:13.870Z,83.00
2023-01-25T04:37:41.962Z,82.94
2023-01-25T04:40:10.216Z,82.76
2023-01-25T04:42:42.526Z,82.51
2023-01-25T04:45:10.437Z,81.91
2023-01-25T04:47:38.604Z,81.73
2023-01-25T04:50:07.213Z,81.70
2023-01-25T04:52:34.932Z,81.57
2023-01-25T04:55:02.008Z,81.54
2023-01-25T04:57:29.504Z,81.77
2023-01-25T04:59:57.577Z,81.87
2023-01-25T05:02:24.687Z,82.20
2023-01-25T05:04:52.806Z,82.06
2023-01-25T05:07:20.274Z,81.90
2023-01-25T05:09:48.796Z,81.82
2023-01-25T05:12:16.169Z,81.67
2023-01-25T05:14:51.914Z,81.62
2023-01-25T05:17:21.772Z,81.57
2023-01-25T05:19:50.316Z,81.33
2023-01-25T05:22:23.863Z,81.03
2023-01-25T05:24:55.020Z,80.16
2023-01-25T05:27:23.626Z,79.35
2023-01-25T05:29:54.263Z,78.93
2023-01-25T05:32:25.318Z,78.90
2023-01-25T05:34:53.091Z,78.85
2023-01-25T05:37:21.306Z,78.68
2023-01-25T05:39:53.627Z,78.47
2023-01-25T05:42:21.691Z,78.20
2023-01-25T05:44:49.158Z,78.03
2023-01-25T05:47:18.336Z,77.83
2023-01-25T05:49:46.987Z,77.92
2023-01-25T05:52:27.381Z,78.07
2023-01-25T05:54:55.149Z,77.97
2023-01-25T05:57:25.279Z,78.09
2023-01-25T05:59:53.361Z,78.18
2023-01-25T06:02:22.686Z,78.40
2023-01-25T06:04:50.143Z,78.42
2023-01-25T06:07:18.604Z,78.57
2023-01-25T06:09:45.704Z,78.34
2023-01-25T06:12:13.260Z,78.05
2023-01-25T06:14:40.541Z,78.14
2023-01-25T06:17:08.220Z,78.00
2023-01-25T06:20:08.120Z,78.00
2023-01-25T06:22:44.225Z,78.02
2023-01-25T06:25:11.547Z,77.78
2023-01-25T06:27:38.651Z,77.08
2023-01-25T06:30:06.036Z,76.57
2023-01-25T06:32:33.543Z,76.55
2023-01-25T06:35:00.984Z,76.27
2023-01-25T06:37:28.191Z,76.19
2023-01-25T06:39:55.197Z,76.32
2023-01-25T06:42:24.465Z,76.29
2023-01-25T09:31:40.536Z,69.93
2023-01-25T09:34:36.208Z,69.34
2023-01-25T09:37:03.527Z,69.19
2023-01-25T09:39:30.795Z,69.14
2023-01-25T09:42:23.219Z,68.69
2023-01-25T09:45:30.385Z,68.57
2023-01-25T09:48:11.106Z,68.58
2023-01-25T09:50:40.705Z,68.74
2023-01-25T09:53:19.534Z,67.85
2023-01-25T09:55:51.322Z,67.74
2023-01-25T09:58:24.751Z,68.04
2023-01-25T10:01:16.562Z,67.66
2023-01-25T10:03:51.072Z,66.86
2023-01-25T10:06:20.891Z,66.48
2023-01-25T10:08:58.810Z,65.88
2023-01-25T10:11:32.048Z,65.97
2023-01-25T10:13:59.666Z,66.13
2023-01-25T10:16:52.496Z,66.26
2023-01-25T10:19:39.324Z,66.29
2023-01-25T10:22:16.088Z,66.81
2023-01-25T10:24:46.417Z,67.01
2023-01-25T10:27:19.825Z,66.58
2023-01-25T10:29:47.067Z,66.07
2023-01-25T10:32:27.215Z,66.12
2023-01-25T10:34:57.461Z,66.22
2023-01-25T10:37:28.606Z,66.00
2023-01-25T10:39:59.033Z,66.16
2023-01-25T10:42:26.767Z,65.90
2023-01-25T10:44:53.840Z,65.47
2023-01-25T10:47:20.745Z,65.17
2023-01-25T10:49:59.700Z,64.94
2023-01-25T10:52:31.586Z,64.87
2023-01-25T10:55:18.624Z,64.79
2023-01-25T10:57:48.860Z,64.04
2023-01-25T11:00:30.512Z,63.93
2023-01-25T11:02:57.835Z,64.02
2023-01-25T11:05:26.685Z,64.00
2023-01-25T11:07:54.289Z,63.47
2023-01-25T11:10:32.914Z,63.24
2023-01-25T11:13:15.158Z,62.43
2023-01-25T11:15:46.107Z,62.32
2023-01-25T11:18:23.894Z,62.58
2023-01-25T11:21:06.749Z,62.62
2023-01-25T11:23:34.896Z,62.40
2023-01-25T11:26:18.539Z,62.22
2023-01-25T11:28:49.111Z,62.36
2023-01-25T11:31:22.595Z,62.40
2023-01-25T11:33:49.642Z,62.84
2023-01-25T11:36:44.486Z,63.17
2023-01-25T11:39:48.962Z,63.42
2023-01-25T11:42:46.040Z,63.01
2023-01-25T11:45:35.035Z,63.04
2023-01-25T11:48:23.444Z,63.48
2023-01-25T11:51:27.403Z,64.00
2023-01-25T11:54:20.573Z,64.11
2023-01-25T11:56:59.633Z,64.03
2023-01-25T12:00:03.790Z,63.92
2023-01-25T12:02:51.266Z,63.26
2023-01-25T12:05:36.702Z,63.14
2023-01-25T12:08:12.930Z,63.26
2023-01-25T12:11:06.712Z,63.35
2023-01-25T15:17:48.723Z,70.34
2023-01-25T15:20:39.149Z,70.22
2023-01-25T15:23:12.133Z,70.02
2023-01-25T15:26:00.017Z,69.98
2023-01-25T15:28:30.374Z,69.97
2023-01-25T15:30:59.602Z,70.06
2023-01-25T15:33:29.060Z,70.18
2023-01-25T15:35:56.610Z,70.35
2023-01-25T15:38:25.192Z,70.33
2023-01-25T15:40:53.345Z,70.53
2023-01-25T15:43:21.319Z,70.63
2023-01-25T15:45:50.235Z,70.48
2023-01-25T15:48:29.787Z,70.52
2023-01-25T15:50:57.897Z,70.60
2023-01-25T15:53:25.020Z,70.58
2023-01-25T15:55:55.792Z,70.54
2023-01-25T15:58:28.537Z,70.66
2023-01-25T16:00:55.774Z,70.58
2023-01-25T16:03:23.081Z,70.51
2023-01-25T16:05:52.109Z,70.35
2023-01-25T16:08:19.539Z,69.80
2023-01-25T16:10:47.024Z,69.68
2023-01-25T16:13:14.603Z,69.53
2023-01-25T16:15:42.514Z,69.50
2023-01-25T16:18:12.863Z,69.51
2023-01-25T16:20:40.393Z,69.49
2023-01-25T16:23:08.714Z,69.45
2023-01-25T16:25:36.037Z,69.50
2023-01-25T16:28:03.323Z,69.38
2023-01-25T16:30:34.429Z,69.23
2023-01-25T16:33:02.116Z,69.13
2023-01-25T16:35:29.381Z,68.83
2023-01-25T16:37:57.145Z,68.56
2023-01-25T16:40:36.795Z,68.37
2023-01-25T16:43:04.430Z,68.35
2023-01-25T16:45:32.281Z,68.17
2023-01-25T16:48:00.365Z,67.92
2023-01-25T16:50:27.901Z,67.91
2023-01-25T16:52:58.695Z,67.83
2023-01-25T16:55:25.936Z,67.98
2023-01-25T16:57:52.964Z,68.23
2023-01-25T17:00:20.936Z,68.20
2023-01-25T17:02:58.577Z,68.44
2023-01-25T17:05:33.203Z,68.44
2023-01-25T17:08:00.719Z,68.34
2023-01-25T17:10:30.643Z,68.25
2023-01-25T17:12:57.953Z,68.18
2023-01-25T17:15:26.400Z,68.43
2023-01-25T17:17:54.000Z,68.56
2023-01-25T17:20:22.674Z,68.60
2023-01-25T17:22:51.436Z,68.95
2023-01-25T17:25:18.555Z,69.72
2023-01-25T17:27:46.521Z,70.06
2023-01-25T17:30:15.037Z,70.46
2023-01-25T17:32:42.238Z,71.13
2023-01-25T17:35:09.592Z,71.15
2023-01-25T17:37:41.065Z,71.18
2023-01-25T17:40:10.542Z,71.16
2023-01-25T17:42:37.775Z,71.25
2023-01-25T17:45:05.739Z,71.23
2023-01-25T17:47:35.611Z,71.04
2023-01-25T17:50:04.685Z,70.97
2023-01-25T17:52:32.834Z,70.56
2023-01-25T17:55:00.627Z,70.35
2023-01-25T17:57:29.339Z,70.03
2023-01-25T17:59:59.900Z,70.04
2023-01-25T18:02:27.237Z,70.02
2023-01-25T18:04:54.608Z,70.09
2023-01-25T19:21:52.149Z,68.09
2023-01-25T19:24:21.075Z,68.41
2023-01-25T19:26:49.015Z,68.61
2023-01-25T19:29:16.293Z,68.67
2023-01-25T19:31:43.648Z,68.21
2023-01-25T19:34:11.209Z,67.37
2023-01-25T19:36:43.934Z,66.74
2023-01-25T19:39:11.722Z,66.49
2023-01-25T19:41:39.596Z,66.64
2023-01-25T19:44:07.432Z,66.38
2023-01-25T19:46:35.543Z,65.72
2023-01-25T19:49:05.355Z,65.23
2023-01-25T19:51:34.955Z,64.87
2023-01-25T19:54:05.564Z,64.08
2023-01-25T19:56:35.814Z,63.59
2023-01-25T19:59:08.632Z,63.41
2023-01-25T20:01:43.832Z,63.23
2023-01-25T20:54:06.073Z,68.86
2023-01-25T21:35:34.798Z,63.62
2023-01-25T21:38:04.819Z,63.14
2023-01-25T21:40:35.598Z,63.11
2023-01-25T21:43:04.882Z,62.94
2023-01-25T21:45:58.115Z,63.00
2023-01-25T21:48:51.559Z,62.98
2023-01-25T21:51:36.404Z,62.89
2023-01-25T21:54:06.210Z,62.86
2023-01-25T21:56:36.117Z,62.74
2023-01-25T21:59:06.961Z,62.72
2023-01-25T22:01:37.556Z,62.83
2023-01-25T22:04:09.805Z,62.84
2023-01-25T22:06:40.108Z,62.95
2023-01-25T22:09:09.055Z,63.43
2023-01-25T22:11:45.582Z,63.57
2023-01-25T22:14:17.956Z,63.41
2023-01-25T22:16:48.398Z,63.33
2023-01-25T22:19:19.298Z,63.34
2023-01-25T22:21:49.515Z,63.31
2023-01-25T22:24:22.179Z,63.35
2023-01-25T22:27:26.279Z,63.34
2023-01-25T22:29:54.335Z,63.44
2023-01-25T22:32:22.367Z,63.61
2023-01-25T22:34:50.338Z,63.55
2023-01-25T22:37:17.824Z,63.75
2023-01-25T22:39:46.405Z,63.80
2023-01-25T22:42:14.788Z,63.95
2023-01-25T22:44:42.832Z,64.10
2023-01-25T22:47:10.516Z,64.17
2023-01-25T22:49:38.940Z,64.36
2023-01-25T22:52:06.630Z,64.47
2023-01-25T22:54:36.618Z,64.60
2023-01-25T22:57:04.248Z,64.68
2023-01-25T22:59:32.193Z,64.74
2023-01-25T23:02:00.521Z,64.65
2023-01-25T23:04:28.723Z,64.86
2023-01-25T23:07:02.466Z,64.94
2023-01-25T23:09:30.194Z,65.17
2023-01-25T23:11:58.879Z,65.17
2023-01-25T23:14:45.524Z,65.30
2023-01-25T23:17:31.999Z,65.30
2023-01-25T23:19:58.978Z,65.24
2023-01-25T23:22:27.324Z,65.36
2023-01-25T23:24:54.865Z,65.65
2023-01-25T23:27:22.476Z,65.67
2023-01-25T23:29:51.214Z,65.66
2023-01-25T23:32:18.844Z,65.79
2023-01-25T23:34:46.028Z,65.86
2023-01-25T23:37:14.870Z,65.95
2023-01-25T23:39:44.394Z,65.92
2023-01-25T23:42:13.413Z,65.98
2023-01-25T23:44:41.401Z,66.08
2023-01-25T23:47:09.364Z,66.23
2023-01-25T23:49:36.830Z,66.37
2023-01-25T23:52:03.955Z,66.54
2023-01-25T23:54:31.474Z,66.68
2023-01-25T23:56:59.256Z,66.80
2023-01-25T23:59:27.779Z,66.83
